Raleigh, Illinois
Current Conditions -  °F | °C
As of 9:15 PM on Saturday 20 Dec 2014 (Local Time) from KHSB Reporting Station
Overcast Overcast  
Wind Chill: -1°   Ceiling: 3000
Heat Index:   Visibility: 10mi
Dew Point: -2°   Wind: 5mph
Humidity: 81%   Direction: 60°ENE
Pressure: 30.31"   Gusts: NA
Location:  37.83°N, 88.53°W
Report Text: KHSB 210315Z AUTO 06004KT 10SM OVC030 01/M02 A3031 RMK AO2 T00121017
Loading
Personal Weather Stations






























Interactive Weather Map New forecast layout! Learn more

10-Day Weather Forecast

Advertisements
Track Severe Weather on mobile